sensor_id;sensor_type;location;lat;lon;timestamp;pressure;altitude;pressure_sealevel;temperature;humidity
4022;BME280;2025;48.260;16.432;2023-05-23T00:01:50;99456.44;;;14.37;89.06
4022;BME280;2025;48.260;16.432;2023-05-23T00:04:19;99460.50;;;14.32;89.13
4022;BME280;2025;48.260;16.432;2023-05-23T00:06:46;99456.59;;;14.22;89.59
4022;BME280;2025;48.260;16.432;2023-05-23T00:09:15;99458.84;;;14.18;89.68
4022;BME280;2025;48.260;16.432;2023-05-23T00:11:42;99453.94;;;14.15;89.62
4022;BME280;2025;48.260;16.432;2023-05-23T00:14:10;99464.09;;;14.11;89.93
4022;BME280;2025;48.260;16.432;2023-05-23T00:16:40;99458.59;;;14.06;90.14
4022;BME280;2025;48.260;16.432;2023-05-23T00:19:08;99450.03;;;14.04;90.20
4022;BME280;2025;48.260;16.432;2023-05-23T00:21:35;99455.72;;;14.01;90.35
4022;BME280;2025;48.260;16.432;2023-05-23T00:24:02;99460.81;;;14.03;90.21
4022;BME280;2025;48.260;16.432;2023-05-23T00:26:30;99453.09;;;14.01;90.36
4022;BME280;2025;48.260;16.432;2023-05-23T00:28:57;99458.56;;;14.00;90.45
4022;BME280;2025;48.260;16.432;2023-05-23T00:31:24;99454.50;;;13.97;90.56
4022;BME280;2025;48.260;16.432;2023-05-23T00:33:52;99453.88;;;13.95;90.49
4022;BME280;2025;48.260;16.432;2023-05-23T00:36:19;99452.84;;;13.96;90.58
4022;BME280;2025;48.260;16.432;2023-05-23T00:38:47;99455.09;;;13.99;90.38
4022;BME280;2025;48.260;16.432;2023-05-23T00:41:14;99455.69;;;13.95;90.50
4022;BME280;2025;48.260;16.432;2023-05-23T00:43:42;99456.31;;;13.90;90.44
4022;BME280;2025;48.260;16.432;2023-05-23T00:46:10;99454.44;;;13.84;90.59
4022;BME280;2025;48.260;16.432;2023-05-23T00:48:37;99459.09;;;13.82;90.57
4022;BME280;2025;48.260;16.432;2023-05-23T00:51:06;99459.06;;;13.75;90.77
4022;BME280;2025;48.260;16.432;2023-05-23T00:53:33;99464.75;;;13.72;90.60
4022;BME280;2025;48.260;16.432;2023-05-23T00:56:01;99460.69;;;13.69;90.74
4022;BME280;2025;48.260;16.432;2023-05-23T00:58:29;99451.50;;;13.65;90.61
4022;BME280;2025;48.260;16.432;2023-05-23T01:00:56;99459.41;;;13.59;90.70
4022;BME280;2025;48.260;16.432;2023-05-23T01:03:24;99453.69;;;13.55;90.69
4022;BME280;2025;48.260;16.432;2023-05-23T01:05:53;99456.53;;;13.54;90.79
4022;BME280;2025;48.260;16.432;2023-05-23T01:08:22;99451.63;;;13.51;90.87
4022;BME280;2025;48.260;16.432;2023-05-23T01:10:49;99455.50;;;13.48;91.03
4022;BME280;2025;48.260;16.432;2023-05-23T01:13:22;99452.41;;;13.44;91.18
4022;BME280;2025;48.260;16.432;2023-05-23T01:15:55;99451.78;;;13.42;91.09
4022;BME280;2025;48.260;16.432;2023-05-23T01:18:28;99452.81;;;13.41;91.17
4022;BME280;2025;48.260;16.432;2023-05-23T01:21:03;99447.50;;;13.41;91.20
4022;BME280;2025;48.260;16.432;2023-05-23T01:24:06;99446.25;;;13.37;90.94
4022;BME280;2025;48.260;16.432;2023-05-23T01:26:54;99453.16;;;13.32;91.05
4022;BME280;2025;48.260;16.432;2023-05-23T01:29:31;99442.94;;;13.28;91.17
4022;BME280;2025;48.260;16.432;2023-05-23T01:31:59;99444.34;;;13.24;91.07
4022;BME280;2025;48.260;16.432;2023-05-23T01:34:28;99446.75;;;13.19;91.01
4022;BME280;2025;48.260;16.432;2023-05-23T01:36:56;99450.56;;;13.17;91.52
4022;BME280;2025;48.260;16.432;2023-05-23T01:39:23;99448.78;;;13.17;91.50
4022;BME280;2025;48.260;16.432;2023-05-23T01:41:51;99445.09;;;13.18;91.50
4022;BME280;2025;48.260;16.432;2023-05-23T01:44:19;99441.66;;;13.18;91.53
4022;BME280;2025;48.260;16.432;2023-05-23T01:46:48;99432.28;;;13.15;91.41
4022;BME280;2025;48.260;16.432;2023-05-23T01:49:16;99429.41;;;13.10;91.43
4022;BME280;2025;48.260;16.432;2023-05-23T01:51:44;99431.78;;;13.05;91.25
4022;BME280;2025;48.260;16.432;2023-05-23T01:54:13;99427.53;;;13.04;91.48
4022;BME280;2025;48.260;16.432;2023-05-23T01:56:41;99425.06;;;13.02;91.69
4022;BME280;2025;48.260;16.432;2023-05-23T01:59:09;99426.28;;;13.00;91.65
4022;BME280;2025;48.260;16.432;2023-05-23T02:01:36;99428.09;;;12.99;91.51
4022;BME280;2025;48.260;16.432;2023-05-23T02:04:05;99419.72;;;12.96;91.38
4022;BME280;2025;48.260;16.432;2023-05-23T02:06:32;99433.78;;;12.96;91.59
4022;BME280;2025;48.260;16.432;2023-05-23T02:08:59;99428.69;;;12.95;91.67
4022;BME280;2025;48.260;16.432;2023-05-23T02:11:26;99433.34;;;12.93;91.69
4022;BME280;2025;48.260;16.432;2023-05-23T02:13:52;99430.28;;;12.89;91.90
4022;BME280;2025;48.260;16.432;2023-05-23T02:16:19;99418.44;;;12.85;91.80
4022;BME280;2025;48.260;16.432;2023-05-23T02:18:47;99419.03;;;12.80;91.66
4022;BME280;2025;48.260;16.432;2023-05-23T02:21:18;99422.88;;;12.78;91.77
4022;BME280;2025;48.260;16.432;2023-05-23T02:23:45;99420.00;;;12.73;91.50
4022;BME280;2025;48.260;16.432;2023-05-23T02:26:12;99417.72;;;12.70;91.64
4022;BME280;2025;48.260;16.432;2023-05-23T02:28:39;99422.56;;;12.66;91.91
4022;BME280;2025;48.260;16.432;2023-05-23T02:31:06;99427.00;;;12.65;92.12
4022;BME280;2025;48.260;16.432;2023-05-23T02:33:33;99419.47;;;12.62;91.92
4022;BME280;2025;48.260;16.432;2023-05-23T02:36:00;99423.78;;;12.63;92.07
4022;BME280;2025;48.260;16.432;2023-05-23T02:38:29;99415.69;;;12.72;91.81
4022;BME280;2025;48.260;16.432;2023-05-23T02:40:56;99414.25;;;12.69;91.72
4022;BME280;2025;48.260;16.432;2023-05-23T02:43:23;99415.00;;;12.63;91.75
4022;BME280;2025;48.260;16.432;2023-05-23T02:45:50;99413.97;;;12.57;91.78
4022;BME280;2025;48.260;16.432;2023-05-23T02:48:17;99419.34;;;12.49;91.66
4022;BME280;2025;48.260;16.432;2023-05-23T02:50:43;99408.56;;;12.44;91.97
4022;BME280;2025;48.260;16.432;2023-05-23T02:53:10;99416.22;;;12.39;92.19
4022;BME280;2025;48.260;16.432;2023-05-23T02:55:39;99415.59;;;12.37;92.59
4022;BME280;2025;48.260;16.432;2023-05-23T02:58:07;99410.13;;;12.38;92.72
4022;BME280;2025;48.260;16.432;2023-05-23T03:00:35;99412.38;;;12.41;92.82
4022;BME280;2025;48.260;16.432;2023-05-23T03:03:01;99413.41;;;12.40;92.53
4022;BME280;2025;48.260;16.432;2023-05-23T03:05:28;99417.84;;;12.40;92.61
4022;BME280;2025;48.260;16.432;2023-05-23T03:07:55;99415.22;;;12.40;92.66
4022;BME280;2025;48.260;16.432;2023-05-23T03:10:22;99413.75;;;12.37;92.50
4022;BME280;2025;48.260;16.432;2023-05-23T03:12:51;99414.59;;;12.38;92.54
4022;BME280;2025;48.260;16.432;2023-05-23T03:15:18;99415.78;;;12.35;92.55
4022;BME280;2025;48.260;16.432;2023-05-23T03:17:45;99418.63;;;12.34;92.62
4022;BME280;2025;48.260;16.432;2023-05-23T03:20:12;99418.25;;;12.37;92.89
4022;BME280;2025;48.260;16.432;2023-05-23T03:22:39;99412.97;;;12.37;92.84
4022;BME280;2025;48.260;16.432;2023-05-23T03:25:08;99414.97;;;12.35;92.98
4022;BME280;2025;48.260;16.432;2023-05-23T03:27:35;99411.97;;;12.38;93.01
4022;BME280;2025;48.260;16.432;2023-05-23T03:30:04;99422.53;;;12.38;93.30
4022;BME280;2025;48.260;16.432;2023-05-23T03:32:31;99426.63;;;12.40;93.14
4022;BME280;2025;48.260;16.432;2023-05-23T03:34:58;99429.25;;;12.40;92.86
4022;BME280;2025;48.260;16.432;2023-05-23T03:37:25;99425.78;;;12.40;92.82
4022;BME280;2025;48.260;16.432;2023-05-23T03:39:52;99424.78;;;12.41;92.74
4022;BME280;2025;48.260;16.432;2023-05-23T03:42:19;99428.47;;;12.47;92.80
4022;BME280;2025;48.260;16.432;2023-05-23T03:44:46;99435.19;;;12.49;92.70
4022;BME280;2025;48.260;16.432;2023-05-23T03:47:14;99437.28;;;12.54;92.71
4022;BME280;2025;48.260;16.432;2023-05-23T03:49:41;99437.66;;;12.51;92.42
4022;BME280;2025;48.260;16.432;2023-05-23T03:52:09;99441.13;;;12.51;92.45
4022;BME280;2025;48.260;16.432;2023-05-23T03:54:36;99439.88;;;12.47;92.35
4022;BME280;2025;48.260;16.432;2023-05-23T03:57:03;99443.50;;;12.46;92.82
4022;BME280;2025;48.260;16.432;2023-05-23T03:59:31;99438.47;;;12.51;93.04
4022;BME280;2025;48.260;16.432;2023-05-23T04:01:58;99441.13;;;12.51;92.61
4022;BME280;2025;48.260;16.432;2023-05-23T04:04:26;99436.97;;;12.63;93.15
4022;BME280;2025;48.260;16.432;2023-05-23T04:06:53;99438.47;;;12.73;92.70
4022;BME280;2025;48.260;16.432;2023-05-23T04:09:21;99438.16;;;12.82;93.11
4022;BME280;2025;48.260;16.432;2023-05-23T04:11:47;99437.75;;;12.85;92.91
4022;BME280;2025;48.260;16.432;2023-05-23T04:14:14;99440.44;;;12.92;93.04
4022;BME280;2025;48.260;16.432;2023-05-23T04:16:41;99439.47;;;13.00;92.95
4022;BME280;2025;48.260;16.432;2023-05-23T04:19:09;99449.31;;;13.06;92.88
4022;BME280;2025;48.260;16.432;2023-05-23T04:21:38;99445.88;;;13.12;92.84
4022;BME280;2025;48.260;16.432;2023-05-23T04:24:05;99446.75;;;13.19;92.91
4022;BME280;2025;48.260;16.432;2023-05-23T04:26:32;99444.78;;;13.28;92.85
4022;BME280;2025;48.260;16.432;2023-05-23T04:29:00;99439.19;;;13.44;92.47
4022;BME280;2025;48.260;16.432;2023-05-23T04:31:28;99434.38;;;13.55;92.59
4022;BME280;2025;48.260;16.432;2023-05-23T04:33:54;99434.63;;;13.66;92.52
4022;BME280;2025;48.260;16.432;2023-05-23T04:36:22;99439.75;;;13.81;92.37
4022;BME280;2025;48.260;16.432;2023-05-23T04:38:51;99435.34;;;13.95;91.95
4022;BME280;2025;48.260;16.432;2023-05-23T04:41:18;99429.47;;;14.06;91.91
4022;BME280;2025;48.260;16.432;2023-05-23T04:43:47;99430.53;;;14.25;91.06
4022;BME280;2025;48.260;16.432;2023-05-23T04:46:18;99439.72;;;14.43;91.16
4022;BME280;2025;48.260;16.432;2023-05-23T04:48:50;99441.56;;;14.49;90.97
4022;BME280;2025;48.260;16.432;2023-05-23T04:51:17;99435.69;;;14.60;90.43
4022;BME280;2025;48.260;16.432;2023-05-23T04:53:46;99437.31;;;14.68;90.61
4022;BME280;2025;48.260;16.432;2023-05-23T04:56:15;99443.88;;;14.85;90.14
4022;BME280;2025;48.260;16.432;2023-05-23T04:58:45;99433.47;;;14.97;89.98
4022;BME280;2025;48.260;16.432;2023-05-23T05:01:12;99440.56;;;15.10;89.55
4022;BME280;2025;48.260;16.432;2023-05-23T05:03:40;99438.53;;;15.18;88.12
4022;BME280;2025;48.260;16.432;2023-05-23T05:06:07;99440.75;;;15.28;88.50
4022;BME280;2025;48.260;16.432;2023-05-23T05:08:34;99439.91;;;15.34;87.94
4022;BME280;2025;48.260;16.432;2023-05-23T05:11:01;99441.16;;;15.38;87.61
4022;BME280;2025;48.260;16.432;2023-05-23T05:13:29;99435.78;;;15.45;87.69
4022;BME280;2025;48.260;16.432;2023-05-23T05:15:56;99436.00;;;15.50;85.85
4022;BME280;2025;48.260;16.432;2023-05-23T05:18:24;99432.94;;;15.53;86.87
4022;BME280;2025;48.260;16.432;2023-05-23T05:20:51;99442.91;;;15.65;86.35
4022;BME280;2025;48.260;16.432;2023-05-23T05:23:18;99442.91;;;15.71;85.65
4022;BME280;2025;48.260;16.432;2023-05-23T05:25:46;99440.81;;;15.80;85.39
4022;BME280;2025;48.260;16.432;2023-05-23T05:28:13;99434.22;;;15.89;85.00
4022;BME280;2025;48.260;16.432;2023-05-23T05:30:41;99442.16;;;16.02;84.15
4022;BME280;2025;48.260;16.432;2023-05-23T05:33:10;99437.56;;;16.16;83.89
4022;BME280;2025;48.260;16.432;2023-05-23T05:35:37;99442.81;;;16.30;82.79
4022;BME280;2025;48.260;16.432;2023-05-23T05:38:04;99441.31;;;16.40;81.66
4022;BME280;2025;48.260;16.432;2023-05-23T05:40:32;99444.72;;;16.48;81.49
4022;BME280;2025;48.260;16.432;2023-05-23T05:42:59;99452.91;;;16.53;82.46
4022;BME280;2025;48.260;16.432;2023-05-23T05:45:26;99445.44;;;16.61;80.93
4022;BME280;2025;48.260;16.432;2023-05-23T05:47:54;99444.75;;;16.73;80.77
4022;BME280;2025;48.260;16.432;2023-05-23T05:50:21;99445.28;;;16.88;80.78
4022;BME280;2025;48.260;16.432;2023-05-23T05:52:48;99445.81;;;16.97;81.05
4022;BME280;2025;48.260;16.432;2023-05-23T05:55:15;99441.63;;;17.08;79.39
4022;BME280;2025;48.260;16.432;2023-05-23T05:57:42;99433.72;;;17.19;78.55
4022;BME280;2025;48.260;16.432;2023-05-23T06:00:11;99433.34;;;17.34;79.79
4022;BME280;2025;48.260;16.432;2023-05-23T06:02:40;99445.06;;;17.52;77.12
4022;BME280;2025;48.260;16.432;2023-05-23T06:05:09;99438.69;;;17.53;75.53
4022;BME280;2025;48.260;16.432;2023-05-23T06:07:37;99425.63;;;17.51;75.97
4022;BME280;2025;48.260;16.432;2023-05-23T06:10:05;99424.28;;;17.60;76.90
4022;BME280;2025;48.260;16.432;2023-05-23T06:12:33;99429.97;;;17.82;75.37
4022;BME280;2025;48.260;16.432;2023-05-23T06:15:00;99435.09;;;17.84;74.71
4022;BME280;2025;48.260;16.432;2023-05-23T06:17:27;99434.28;;;17.83;75.00
4022;BME280;2025;48.260;16.432;2023-05-23T06:19:54;99432.25;;;17.97;75.04
4022;BME280;2025;48.260;16.432;2023-05-23T06:22:22;99437.22;;;17.94;75.69
4022;BME280;2025;48.260;16.432;2023-05-23T06:24:49;99433.78;;;18.05;74.59
4022;BME280;2025;48.260;16.432;2023-05-23T06:27:16;99431.56;;;18.02;73.68
4022;BME280;2025;48.260;16.432;2023-05-23T06:29:43;99431.34;;;18.03;73.95
4022;BME280;2025;48.260;16.432;2023-05-23T06:32:10;99439.25;;;18.10;75.59
4022;BME280;2025;48.260;16.432;2023-05-23T06:34:37;99431.09;;;18.23;74.58
4022;BME280;2025;48.260;16.432;2023-05-23T06:37:04;99425.78;;;18.35;74.35
4022;BME280;2025;48.260;16.432;2023-05-23T06:39:32;99428.38;;;18.53;72.96
4022;BME280;2025;48.260;16.432;2023-05-23T06:41:59;99422.47;;;18.51;72.96
4022;BME280;2025;48.260;16.432;2023-05-23T06:44:27;99426.91;;;18.69;70.79
4022;BME280;2025;48.260;16.432;2023-05-23T06:46:53;99425.84;;;18.70;71.27
4022;BME280;2025;48.260;16.432;2023-05-23T06:49:24;99420.78;;;18.92;72.64
4022;BME280;2025;48.260;16.432;2023-05-23T06:51:59;99430.16;;;18.95;71.90
4022;BME280;2025;48.260;16.432;2023-05-23T06:54:26;99422.75;;;18.97;70.73
4022;BME280;2025;48.260;16.432;2023-05-23T06:56:54;99421.94;;;18.97;70.52
4022;BME280;2025;48.260;16.432;2023-05-23T06:59:21;99422.31;;;19.00;70.38
4022;BME280;2025;48.260;16.432;2023-05-23T07:01:48;99418.25;;;18.98;70.82
4022;BME280;2025;48.260;16.432;2023-05-23T07:04:15;99421.59;;;19.16;70.66
4022;BME280;2025;48.260;16.432;2023-05-23T07:06:42;99420.41;;;19.24;71.03
4022;BME280;2025;48.260;16.432;2023-05-23T07:09:09;99419.03;;;19.33;69.18
4022;BME280;2025;48.260;16.432;2023-05-23T07:11:37;99416.19;;;19.52;68.58
4022;BME280;2025;48.260;16.432;2023-05-23T07:14:07;99415.81;;;19.60;69.97
4022;BME280;2025;48.260;16.432;2023-05-23T07:16:33;99414.66;;;19.79;68.55
4022;BME280;2025;48.260;16.432;2023-05-23T07:19:01;99415.03;;;20.00;67.66
4022;BME280;2025;48.260;16.432;2023-05-23T07:21:29;99413.78;;;20.19;66.60
4022;BME280;2025;48.260;16.432;2023-05-23T07:23:56;99409.47;;;20.18;64.47
4022;BME280;2025;48.260;16.432;2023-05-23T07:26:23;99407.63;;;20.19;65.70
4022;BME280;2025;48.260;16.432;2023-05-23T07:28:51;99414.28;;;20.33;64.93
4022;BME280;2025;48.260;16.432;2023-05-23T07:31:20;99409.59;;;20.40;65.91
4022;BME280;2025;48.260;16.432;2023-05-23T07:33:47;99404.97;;;20.53;64.76
4022;BME280;2025;48.260;16.432;2023-05-23T07:36:14;99406.78;;;20.64;63.81
4022;BME280;2025;48.260;16.432;2023-05-23T07:38:41;99401.50;;;20.69;62.62
4022;BME280;2025;48.260;16.432;2023-05-23T07:41:08;99393.31;;;20.76;64.46
4022;BME280;2025;48.260;16.432;2023-05-23T07:43:34;99401.59;;;20.91;63.23
4022;BME280;2025;48.260;16.432;2023-05-23T07:46:01;99407.63;;;21.03;64.22
4022;BME280;2025;48.260;16.432;2023-05-23T07:48:30;99396.03;;;21.15;63.58
4022;BME280;2025;48.260;16.432;2023-05-23T07:50:57;99394.16;;;21.15;64.29
4022;BME280;2025;48.260;16.432;2023-05-23T07:53:24;99394.72;;;21.17;63.77
4022;BME280;2025;48.260;16.432;2023-05-23T07:55:51;99390.28;;;21.06;63.34
4022;BME280;2025;48.260;16.432;2023-05-23T07:58:18;99392.16;;;21.05;62.87
4022;BME280;2025;48.260;16.432;2023-05-23T08:00:45;99389.97;;;21.24;63.97
4022;BME280;2025;48.260;16.432;2023-05-23T08:03:12;99387.19;;;21.36;62.06
4022;BME280;2025;48.260;16.432;2023-05-23T08:05:40;99387.59;;;21.28;60.74
4022;BME280;2025;48.260;16.432;2023-05-23T08:08:07;99384.44;;;21.31;62.37
4022;BME280;2025;48.260;16.432;2023-05-23T08:10:34;99389.44;;;21.44;63.57
4022;BME280;2025;48.260;16.432;2023-05-23T08:13:01;99384.22;;;21.55;62.59
4022;BME280;2025;48.260;16.432;2023-05-23T08:15:31;99377.69;;;21.45;59.23
4022;BME280;2025;48.260;16.432;2023-05-23T08:17:58;99377.22;;;21.54;61.13
4022;BME280;2025;48.260;16.432;2023-05-23T08:20:25;99376.16;;;21.77;60.33
4022;BME280;2025;48.260;16.432;2023-05-23T08:22:57;99373.41;;;21.94;61.26
4022;BME280;2025;48.260;16.432;2023-05-23T08:25:25;99364.75;;;22.19;59.70
4022;BME280;2025;48.260;16.432;2023-05-23T08:27:55;99366.53;;;22.35;62.21
4022;BME280;2025;48.260;16.432;2023-05-23T08:30:22;99368.28;;;22.51;62.51
4022;BME280;2025;48.260;16.432;2023-05-23T08:32:50;99370.56;;;22.70;59.57
4022;BME280;2025;48.260;16.432;2023-05-23T08:35:18;99370.63;;;22.80;59.44
4022;BME280;2025;48.260;16.432;2023-05-23T08:37:45;99369.88;;;22.85;57.91
4022;BME280;2025;48.260;16.432;2023-05-23T08:40:17;99370.78;;;23.01;61.29
4022;BME280;2025;48.260;16.432;2023-05-23T08:42:45;99364.88;;;22.99;56.87
4022;BME280;2025;48.260;16.432;2023-05-23T08:45:12;99360.25;;;22.94;59.84
4022;BME280;2025;48.260;16.432;2023-05-23T08:47:41;99362.66;;;22.96;58.16
4022;BME280;2025;48.260;16.432;2023-05-23T08:50:11;99358.16;;;23.01;59.25
4022;BME280;2025;48.260;16.432;2023-05-23T08:52:42;99355.28;;;23.13;57.14
4022;BME280;2025;48.260;16.432;2023-05-23T08:55:10;99362.00;;;23.21;56.63
4022;BME280;2025;48.260;16.432;2023-05-23T08:57:38;99358.56;;;23.30;57.85
4022;BME280;2025;48.260;16.432;2023-05-23T09:00:09;99358.84;;;23.34;55.49
4022;BME280;2025;48.260;16.432;2023-05-23T09:02:40;99364.25;;;23.39;57.65
4022;BME280;2025;48.260;16.432;2023-05-23T09:05:08;99354.13;;;23.62;54.40
4022;BME280;2025;48.260;16.432;2023-05-23T09:07:35;99358.41;;;23.68;56.13
4022;BME280;2025;48.260;16.432;2023-05-23T09:10:04;99354.66;;;23.69;54.81
4022;BME280;2025;48.260;16.432;2023-05-23T09:12:32;99356.56;;;23.68;56.18
4022;BME280;2025;48.260;16.432;2023-05-23T09:15:06;99353.31;;;23.71;54.30
4022;BME280;2025;48.260;16.432;2023-05-23T09:17:33;99351.69;;;23.65;52.18
4022;BME280;2025;48.260;16.432;2023-05-23T09:20:01;99348.75;;;23.72;53.90
4022;BME280;2025;48.260;16.432;2023-05-23T09:22:29;99346.13;;;23.92;52.42
4022;BME280;2025;48.260;16.432;2023-05-23T09:24:56;99350.44;;;24.14;57.93
4022;BME280;2025;48.260;16.432;2023-05-23T09:27:23;99340.25;;;24.47;50.27
4022;BME280;2025;48.260;16.432;2023-05-23T09:29:50;99342.66;;;24.58;54.51
4022;BME280;2025;48.260;16.432;2023-05-23T09:32:19;99339.16;;;24.73;54.46
4022;BME280;2025;48.260;16.432;2023-05-23T09:34:55;99343.66;;;24.93;52.98
4022;BME280;2025;48.260;16.432;2023-05-23T09:37:28;99355.47;;;25.08;51.88
4022;BME280;2025;48.260;16.432;2023-05-23T09:39:56;99353.03;;;25.11;49.06
4022;BME280;2025;48.260;16.432;2023-05-23T09:42:23;99351.75;;;24.93;49.57
4022;BME280;2025;48.260;16.432;2023-05-23T09:44:50;99350.41;;;24.91;49.14
4022;BME280;2025;48.260;16.432;2023-05-23T09:47:20;99346.31;;;25.09;49.60
4022;BME280;2025;48.260;16.432;2023-05-23T09:49:47;99354.34;;;25.29;50.54
4022;BME280;2025;48.260;16.432;2023-05-23T09:52:15;99354.03;;;25.36;52.38
4022;BME280;2025;48.260;16.432;2023-05-23T09:54:44;99352.91;;;25.47;49.39
4022;BME280;2025;48.260;16.432;2023-05-23T09:57:14;99353.78;;;25.37;48.30
4022;BME280;2025;48.260;16.432;2023-05-23T09:59:47;99353.53;;;25.29;51.93
4022;BME280;2025;48.260;16.432;2023-05-23T10:02:32;99347.28;;;25.43;47.76
4022;BME280;2025;48.260;16.432;2023-05-23T10:05:06;99344.19;;;25.65;47.64
4022;BME280;2025;48.260;16.432;2023-05-23T10:07:35;99338.47;;;25.72;47.35
4022;BME280;2025;48.260;16.432;2023-05-23T10:10:03;99341.53;;;25.60;46.51
4022;BME280;2025;48.260;16.432;2023-05-23T10:12:46;99335.81;;;25.67;48.67
4022;BME280;2025;48.260;16.432;2023-05-23T10:15:15;99339.50;;;25.86;46.85
4022;BME280;2025;48.260;16.432;2023-05-23T10:18:01;99329.63;;;26.11;48.50
4022;BME280;2025;48.260;16.432;2023-05-23T10:20:30;99330.31;;;26.22;43.82
4022;BME280;2025;48.260;16.432;2023-05-23T10:22:59;99331.31;;;26.65;44.44
4022;BME280;2025;48.260;16.432;2023-05-23T10:25:26;99329.34;;;27.19;42.57
4022;BME280;2025;48.260;16.432;2023-05-23T10:27:54;99330.44;;;27.61;40.91
4022;BME280;2025;48.260;16.432;2023-05-23T10:30:23;99322.22;;;27.90;41.86
4022;BME280;2025;48.260;16.432;2023-05-23T10:32:51;99322.41;;;27.75;40.43
4022;BME280;2025;48.260;16.432;2023-05-23T10:35:24;99321.16;;;27.48;42.73
4022;BME280;2025;48.260;16.432;2023-05-23T10:37:58;99315.25;;;27.46;39.99
4022;BME280;2025;48.260;16.432;2023-05-23T10:40:36;99311.78;;;27.22;43.04
4022;BME280;2025;48.260;16.432;2023-05-23T10:43:17;99306.81;;;27.48;42.29
4022;BME280;2025;48.260;16.432;2023-05-23T10:45:46;99306.09;;;27.61;40.84
4022;BME280;2025;48.260;16.432;2023-05-23T10:48:21;99303.69;;;27.60;41.77
4022;BME280;2025;48.260;16.432;2023-05-23T10:51:03;99300.78;;;27.56;41.98
4022;BME280;2025;48.260;16.432;2023-05-23T10:53:33;99294.25;;;27.38;41.51
4022;BME280;2025;48.260;16.432;2023-05-23T10:56:00;99292.06;;;27.21;42.79
4022;BME280;2025;48.260;16.432;2023-05-23T10:58:29;99282.91;;;27.55;41.85
4022;BME280;2025;48.260;16.432;2023-05-23T11:00:59;99294.13;;;27.67;43.62
4022;BME280;2025;48.260;16.432;2023-05-23T11:03:36;99286.94;;;28.28;41.67
4022;BME280;2025;48.260;16.432;2023-05-23T11:06:05;99284.44;;;28.46;40.47
4022;BME280;2025;48.260;16.432;2023-05-23T11:08:36;99282.19;;;28.67;39.59
4022;BME280;2025;48.260;16.432;2023-05-23T11:11:04;99279.69;;;29.12;39.81
4022;BME280;2025;48.260;16.432;2023-05-23T11:13:53;99274.66;;;29.19;36.93
4022;BME280;2025;48.260;16.432;2023-05-23T11:16:27;99280.06;;;29.05;39.71
4022;BME280;2025;48.260;16.432;2023-05-23T11:19:23;99261.91;;;28.50;38.13
4022;BME280;2025;48.260;16.432;2023-05-23T11:21:56;99263.16;;;28.25;43.20
4022;BME280;2025;48.260;16.432;2023-05-23T11:24:23;99244.09;;;28.16;38.03
4022;BME280;2025;48.260;16.432;2023-05-23T11:26:54;99246.50;;;28.18;37.75
4022;BME280;2025;48.260;16.432;2023-05-23T11:29:25;99235.78;;;28.27;37.81
4022;BME280;2025;48.260;16.432;2023-05-23T11:31:53;99238.13;;;28.47;38.35
4022;BME280;2025;48.260;16.432;2023-05-23T11:34:21;99230.09;;;28.42;39.12
4022;BME280;2025;48.260;16.432;2023-05-23T11:36:53;99242.75;;;28.61;42.45
4022;BME280;2025;48.260;16.432;2023-05-23T11:39:20;99240.97;;;28.70;40.91
4022;BME280;2025;48.260;16.432;2023-05-23T11:41:57;99250.56;;;28.76;40.19
4022;BME280;2025;48.260;16.432;2023-05-23T11:44:25;99243.34;;;28.57;38.76
4022;BME280;2025;48.260;16.432;2023-05-23T11:46:59;99244.00;;;28.22;40.38
4022;BME280;2025;48.260;16.432;2023-05-23T11:49:28;99248.56;;;27.74;41.91
4022;BME280;2025;48.260;16.432;2023-05-23T11:51:57;99247.47;;;27.57;40.82
4022;BME280;2025;48.260;16.432;2023-05-23T11:54:24;99239.22;;;27.48;44.58
4022;BME280;2025;48.260;16.432;2023-05-23T11:56:51;99238.41;;;27.66;45.63
4022;BME280;2025;48.260;16.432;2023-05-23T11:59:20;99234.16;;;27.79;39.50
4022;BME280;2025;48.260;16.432;2023-05-23T12:01:47;99219.63;;;27.56;38.26
4022;BME280;2025;48.260;16.432;2023-05-23T12:04:14;99216.19;;;26.94;39.22
4022;BME280;2025;48.260;16.432;2023-05-23T12:06:41;99226.59;;;26.57;38.44
4022;BME280;2025;48.260;16.432;2023-05-23T12:09:11;99227.34;;;26.39;38.81
4022;BME280;2025;48.260;16.432;2023-05-23T12:11:39;99226.63;;;26.52;40.63
4022;BME280;2025;48.260;16.432;2023-05-23T12:14:07;99222.53;;;26.84;37.31
4022;BME280;2025;48.260;16.432;2023-05-23T12:16:35;99213.97;;;27.20;40.98
4022;BME280;2025;48.260;16.432;2023-05-23T12:19:03;99225.00;;;27.23;38.49
4022;BME280;2025;48.260;16.432;2023-05-23T12:21:40;99229.34;;;27.19;39.55
4022;BME280;2025;48.260;16.432;2023-05-23T12:24:16;99230.00;;;27.68;37.76
4022;BME280;2025;48.260;16.432;2023-05-23T12:26:51;99232.69;;;27.87;40.59
4022;BME280;2025;48.260;16.432;2023-05-23T12:29:20;99234.25;;;28.07;38.43
4022;BME280;2025;48.260;16.432;2023-05-23T12:31:48;99236.09;;;28.25;37.86
4022;BME280;2025;48.260;16.432;2023-05-23T12:34:16;99232.94;;;28.04;36.62
4022;BME280;2025;48.260;16.432;2023-05-23T12:36:43;99223.59;;;27.97;35.61
4022;BME280;2025;48.260;16.432;2023-05-23T12:39:10;99231.41;;;27.65;35.92
4022;BME280;2025;48.260;16.432;2023-05-23T12:41:40;99231.06;;;27.53;37.22
4022;BME280;2025;48.260;16.432;2023-05-23T12:44:07;99225.34;;;27.36;39.49
4022;BME280;2025;48.260;16.432;2023-05-23T12:46:34;99228.34;;;27.34;37.34
4022;BME280;2025;48.260;16.432;2023-05-23T12:49:01;99235.34;;;26.97;38.05
4022;BME280;2025;48.260;16.432;2023-05-23T12:51:28;99237.66;;;27.04;38.74
4022;BME280;2025;48.260;16.432;2023-05-23T12:53:55;99231.25;;;27.00;37.15
4022;BME280;2025;48.260;16.432;2023-05-23T12:56:22;99245.31;;;27.21;38.35
4022;BME280;2025;48.260;16.432;2023-05-23T12:58:51;99243.56;;;27.06;40.20
4022;BME280;2025;48.260;16.432;2023-05-23T13:01:19;99246.72;;;26.70;41.40
4022;BME280;2025;48.260;16.432;2023-05-23T13:03:46;99242.69;;;26.43;41.48
4022;BME280;2025;48.260;16.432;2023-05-23T13:06:13;99245.97;;;26.11;41.20
4022;BME280;2025;48.260;16.432;2023-05-23T13:08:40;99239.84;;;26.00;42.41
4022;BME280;2025;48.260;16.432;2023-05-23T13:11:08;99240.50;;;25.87;42.87
4022;BME280;2025;48.260;16.432;2023-05-23T13:13:35;99234.22;;;25.62;43.61
4022;BME280;2025;48.260;16.432;2023-05-23T13:16:04;99231.28;;;25.54;43.70
4022;BME280;2025;48.260;16.432;2023-05-23T13:18:31;99236.59;;;25.30;45.72